createdAt,value
2023-04-16T00:04:43.374Z,100.00
2023-04-16T00:09:46.473Z,100.00
2023-04-16T00:14:50.389Z,100.00
2023-04-16T00:19:53.010Z,100.00
2023-04-16T00:24:55.538Z,100.00
2023-04-16T00:29:59.412Z,100.00
2023-04-16T00:35:01.885Z,100.00
2023-04-16T00:40:05.321Z,100.00
2023-04-16T00:45:11.097Z,100.00
2023-04-16T00:50:13.858Z,100.00
2023-04-16T00:55:18.553Z,100.00
2023-04-16T01:00:22.903Z,100.00
2023-04-16T01:05:25.420Z,100.00
2023-04-16T01:10:27.916Z,100.00
2023-04-16T01:15:32.124Z,100.00
2023-04-16T01:20:37.438Z,100.00
2023-04-16T01:25:40.093Z,100.00
2023-04-16T01:30:42.720Z,100.00
2023-04-16T01:35:46.563Z,100.00
2023-04-16T01:40:49.037Z,100.00
2023-04-16T01:45:51.526Z,100.00
2023-04-16T01:50:55.507Z,100.00
2023-04-16T01:55:58.002Z,100.00
2023-04-16T02:01:00.744Z,100.00
2023-04-16T02:06:04.905Z,100.00
2023-04-16T02:11:07.578Z,100.00
2023-04-16T02:16:10.273Z,100.00
2023-04-16T02:21:14.144Z,100.00
2023-04-16T02:26:17.066Z,100.00
2023-04-16T02:31:19.708Z,100.00
2023-04-16T02:36:23.992Z,100.00
2023-04-16T02:41:26.502Z,100.00
2023-04-16T02:46:29.071Z,100.00
2023-04-16T02:51:33.217Z,100.00
2023-04-16T02:56:35.871Z,100.00
2023-04-16T03:01:38.397Z,100.00
2023-04-16T03:06:42.296Z,100.00
2023-04-16T03:11:44.792Z,100.00
2023-04-16T03:16:47.294Z,100.00
2023-04-16T03:21:51.101Z,100.00
2023-04-16T03:26:53.592Z,100.00
2023-04-16T03:31:56.087Z,100.00
2023-04-16T03:37:00.194Z,100.00
2023-04-16T03:42:03.404Z,100.00
2023-04-16T03:47:06.133Z,100.00
2023-04-16T03:52:11.166Z,100.00
2023-04-16T03:57:13.656Z,100.00
2023-04-16T04:02:16.234Z,100.00
2023-04-16T04:07:20.163Z,100.00
2023-04-16T04:12:22.704Z,100.00
2023-04-16T04:17:25.267Z,100.00
2023-04-16T04:22:29.138Z,100.00
2023-04-16T04:27:31.638Z,100.00
2023-04-16T04:32:34.248Z,100.00
2023-04-16T04:37:38.194Z,100.00
2023-04-16T04:42:40.927Z,100.00
2023-04-16T04:47:43.559Z,100.00
2023-04-16T04:52:47.423Z,100.00
2023-04-16T04:57:49.964Z,100.00
2023-04-16T05:02:52.578Z,100.00
2023-04-16T05:07:56.531Z,100.00
2023-04-16T05:12:59.020Z,100.00
2023-04-16T05:18:01.586Z,100.00
2023-04-16T05:23:05.461Z,100.00
2023-04-16T05:28:08.183Z,100.00
2023-04-16T05:33:10.690Z,100.00
2023-04-16T05:38:14.514Z,100.00
2023-04-16T05:43:17.174Z,100.00
2023-04-16T05:48:20.035Z,100.00
2023-04-16T05:53:23.887Z,100.00
2023-04-16T05:58:26.357Z,100.00
2023-04-16T06:03:28.995Z,100.00
2023-04-16T06:08:32.869Z,100.00
2023-04-16T06:13:35.391Z,100.00
2023-04-16T06:18:37.908Z,100.00
2023-04-16T06:23:41.710Z,100.00
2023-04-16T06:28:44.195Z,100.00
2023-04-16T06:33:46.714Z,100.00
2023-04-16T06:38:50.645Z,100.00
2023-04-16T06:43:53.357Z,100.00
2023-04-16T06:48:55.929Z,100.00
2023-04-16T06:53:59.822Z,100.00
2023-04-16T06:59:02.369Z,100.00
2023-04-16T07:04:05.242Z,100.00
2023-04-16T07:09:09.474Z,100.00
2023-04-16T07:14:12.395Z,100.00
2023-04-16T07:19:14.948Z,100.00
2023-04-16T07:24:18.782Z,100.00
2023-04-16T07:29:21.477Z,100.00
2023-04-16T07:34:24.370Z,100.00
2023-04-16T07:39:28.225Z,100.00
2023-04-16T07:44:30.749Z,100.00
2023-04-16T07:49:33.434Z,100.00
2023-04-16T07:54:37.298Z,100.00
2023-04-16T07:59:39.811Z,100.00
2023-04-16T08:04:42.705Z,100.00
2023-04-16T08:09:51.657Z,100.00
2023-04-16T08:14:54.225Z,100.00
2023-04-16T08:19:56.748Z,100.00
2023-04-16T08:25:00.609Z,100.00
2023-04-16T08:30:03.219Z,100.00
2023-04-16T08:35:06.453Z,99.88
2023-04-16T08:40:11.066Z,99.57
2023-04-16T08:45:16.478Z,99.43
2023-04-16T08:50:24.620Z,98.57
2023-04-16T08:55:36.906Z,97.95
2023-04-16T09:00:40.973Z,98.32
2023-04-16T09:05:44.824Z,97.57
2023-04-16T09:10:49.992Z,97.68
2023-04-16T09:15:54.146Z,97.48
2023-04-16T09:20:57.512Z,97.53
2023-04-16T09:26:01.418Z,96.55
2023-04-16T09:31:09.965Z,96.88
2023-04-16T09:36:12.516Z,96.55
2023-04-16T09:41:17.648Z,96.33
2023-04-16T09:46:20.601Z,95.72
2023-04-16T09:51:23.167Z,95.44
2023-04-16T09:56:27.182Z,94.54
2023-04-16T10:01:31.960Z,93.61
2023-04-16T10:06:35.540Z,93.08
2023-04-16T10:11:40.561Z,93.41
2023-04-16T10:16:43.972Z,92.77
2023-04-16T10:21:46.924Z,92.42
2023-04-16T10:26:52.685Z,92.26
2023-04-16T10:31:56.830Z,91.97
2023-04-16T10:36:59.402Z,91.27
2023-04-16T10:42:10.596Z,90.42
2023-04-16T10:47:14.419Z,90.69
2023-04-16T10:52:17.914Z,90.10
2023-04-16T10:57:21.864Z,87.58
2023-04-16T11:02:29.857Z,86.38
2023-04-16T11:07:34.437Z,87.12
2023-04-16T11:12:39.712Z,87.54
2023-04-16T11:17:44.049Z,86.86
2023-04-16T11:22:46.993Z,86.48
2023-04-16T11:27:51.165Z,86.97
2023-04-16T11:32:53.706Z,87.67
2023-04-16T11:37:57.957Z,88.22
2023-04-16T11:43:04.995Z,88.22
2023-04-16T11:48:10.598Z,87.92
2023-04-16T11:53:13.595Z,87.85
2023-04-16T11:58:17.465Z,87.58
2023-04-16T12:03:20.366Z,87.58
2023-04-16T12:08:31.071Z,88.20
2023-04-16T12:13:40.085Z,87.88
2023-04-16T12:18:59.920Z,87.62
2023-04-16T12:24:02.456Z,87.87
2023-04-16T12:29:17.659Z,87.97
2023-04-16T12:34:21.320Z,88.43
2023-04-16T12:39:23.937Z,88.34
2023-04-16T12:44:29.425Z,88.31
2023-04-16T12:49:32.012Z,87.34
2023-04-16T12:54:34.571Z,87.59
2023-04-16T12:59:38.390Z,87.32
2023-04-16T13:04:41.058Z,86.55
2023-04-16T13:09:43.729Z,85.74
2023-04-16T13:14:47.570Z,84.89
2023-04-16T13:19:50.067Z,84.84
2023-04-16T13:24:52.578Z,84.76
2023-04-16T13:29:56.568Z,85.51
2023-04-16T13:34:59.384Z,85.43
2023-04-16T13:40:01.926Z,85.76
2023-04-16T13:45:06.811Z,86.20
2023-04-16T13:50:09.903Z,86.34
2023-04-16T13:55:13.930Z,86.10
2023-04-16T14:00:19.571Z,85.34
2023-04-16T14:05:24.577Z,83.90
2023-04-16T14:10:28.438Z,84.26
2023-04-16T14:15:32.350Z,84.06
2023-04-16T14:20:34.851Z,83.99
2023-04-16T14:25:37.359Z,83.44
2023-04-16T14:30:41.218Z,83.25
2023-04-16T14:35:43.736Z,83.10
2023-04-16T14:40:46.297Z,83.40
2023-04-16T14:45:50.716Z,83.19
2023-04-16T14:50:54.671Z,83.09
2023-04-16T14:55:58.887Z,82.97
2023-04-16T15:01:03.908Z,82.92
2023-04-16T15:06:06.686Z,82.39
2023-04-16T15:11:09.201Z,81.23
2023-04-16T15:16:13.106Z,80.91
2023-04-16T15:21:15.844Z,80.99
2023-04-16T15:26:18.510Z,80.97
2023-04-16T15:31:22.653Z,81.37
2023-04-16T15:36:26.575Z,81.10
2023-04-16T15:41:30.378Z,81.45
2023-04-16T15:46:34.281Z,81.37
2023-04-16T15:51:37.187Z,80.70
2023-04-16T15:56:39.833Z,80.22
2023-04-16T16:01:43.776Z,80.01
2023-04-16T16:06:46.584Z,79.49
2023-04-16T16:11:49.072Z,80.23
2023-04-16T16:16:52.969Z,80.53
2023-04-16T16:21:55.874Z,81.67
2023-04-16T16:26:58.508Z,82.21
2023-04-16T16:32:02.436Z,82.23
2023-04-16T16:37:05.119Z,83.06
2023-04-16T16:42:09.014Z,83.60
2023-04-16T16:47:13.179Z,84.37
2023-04-16T16:52:15.978Z,84.79
2023-04-16T16:57:20.073Z,84.88
2023-04-16T17:02:24.054Z,85.26
2023-04-16T17:07:27.347Z,85.78
2023-04-16T17:12:29.894Z,85.95
2023-04-16T17:17:33.782Z,86.01
2023-04-16T17:22:36.597Z,86.66
2023-04-16T17:27:42.486Z,86.96
2023-04-16T17:32:46.395Z,87.13
2023-04-16T17:37:48.918Z,87.61
2023-04-16T17:42:51.503Z,87.49
2023-04-16T17:47:55.461Z,88.07
2023-04-16T17:53:03.400Z,88.03
2023-04-16T17:58:06.171Z,87.98
2023-04-16T18:03:11.490Z,88.39
2023-04-16T18:08:14.211Z,88.37
2023-04-16T18:13:16.716Z,88.30
2023-04-16T18:18:21.318Z,88.31
2023-04-16T18:23:23.930Z,88.48
2023-04-16T18:28:27.654Z,88.41
2023-04-16T18:33:48.824Z,88.44
2023-04-16T18:39:01.628Z,88.21
2023-04-16T18:44:05.201Z,88.84
2023-04-16T18:49:09.377Z,88.86
2023-04-16T18:54:12.230Z,89.04
2023-04-16T18:59:14.861Z,89.12
2023-04-16T19:04:18.945Z,89.39
2023-04-16T19:09:21.608Z,89.08
2023-04-16T19:14:24.207Z,89.60
2023-04-16T19:19:30.033Z,89.10
2023-04-16T19:24:34.232Z,89.26
2023-04-16T19:29:37.212Z,89.40
2023-04-16T19:34:41.056Z,89.59
2023-04-16T19:39:43.660Z,89.53
2023-04-16T19:44:46.625Z,89.92
2023-04-16T19:49:50.499Z,89.56
2023-04-16T19:54:53.060Z,89.79
2023-04-16T19:59:55.696Z,90.26
2023-04-16T20:05:01.794Z,90.42
2023-04-16T20:10:04.660Z,90.18
2023-04-16T20:15:08.690Z,90.71
2023-04-16T20:20:15.689Z,90.90
2023-04-16T20:25:19.670Z,91.39
2023-04-16T20:30:24.416Z,91.84
2023-04-16T20:35:28.266Z,92.50
2023-04-16T20:40:31.130Z,92.34
2023-04-16T20:45:38.115Z,93.25
2023-04-16T20:50:41.995Z,93.72
2023-04-16T20:55:44.604Z,94.07
2023-04-16T21:00:50.064Z,94.60
2023-04-16T21:05:55.798Z,94.70
2023-04-16T21:10:58.338Z,94.73
2023-04-16T21:16:00.863Z,95.12
2023-04-16T21:21:05.041Z,95.32
2023-04-16T21:26:07.557Z,95.82
2023-04-16T21:31:10.179Z,96.21
2023-04-16T21:36:14.066Z,96.28
2023-04-16T21:41:16.626Z,96.74
2023-04-16T21:46:19.160Z,97.15
2023-04-16T21:51:28.827Z,97.42
2023-04-16T21:56:31.365Z,97.78
2023-04-16T22:01:33.938Z,98.29
2023-04-16T22:06:37.808Z,98.46
2023-04-16T22:11:40.669Z,98.55
2023-04-16T22:16:44.753Z,98.55
2023-04-16T22:21:49.253Z,98.70
2023-04-16T22:26:51.758Z,98.65
2023-04-16T22:31:54.976Z,98.58
2023-04-16T22:36:58.850Z,98.81
2023-04-16T22:42:01.835Z,98.84
2023-04-16T22:47:04.427Z,98.61
2023-04-16T22:52:08.231Z,98.62
2023-04-16T22:57:10.766Z,98.35
2023-04-16T23:02:13.301Z,97.96
2023-04-16T23:07:17.435Z,98.03
2023-04-16T23:12:19.917Z,97.77
2023-04-16T23:17:22.398Z,97.68
2023-04-16T23:22:26.201Z,97.49
2023-04-16T23:27:28.677Z,97.63
2023-04-16T23:32:31.275Z,97.68
2023-04-16T23:37:35.218Z,97.50
2023-04-16T23:42:37.705Z,97.48
2023-04-16T23:47:40.277Z,97.53
2023-04-16T23:52:44.135Z,97.39
2023-04-16T23:57:46.643Z,97.32
